Avon, Illinois
Current Conditions -  °F | °C
As of 5:15 PM on Saturday 25 Oct 2014 (Local Time) from KMQB Reporting Station
Clear Clear  
Wind Chill: 71°   Ceiling: Unl
Heat Index: 71°   Visibility: 10mi
Dew Point: 42°   Wind: 8mph
Humidity: 35%   Direction: 330°NNW
Pressure: 30.04"   Gusts: NA
Location:  40.66°N, 90.43°W
Report Text: KMQB 252215Z AUTO 33007KT 10SM CLR 22/05 A3004 RMK AO2 T02170054
Loading
Personal Weather Stations






























Interactive Weather Map
Tropical Storm Tracking
New forecast layout! Learn more

10-Day Weather Forecast

Advertisements
Track Severe Weather on mobile